sensor_id;sensor_type;location;lat;lon;timestamp;P1;durP1;ratioP1;P2;durP2;ratioP2
14603;SDS011;7388;51.078;13.740;2023-01-08T00:01:53;12.40;;;9.70;;
14603;SDS011;7388;51.078;13.740;2023-01-08T00:04:19;8.17;;;7.37;;
14603;SDS011;7388;51.078;13.740;2023-01-08T00:06:45;10.10;;;8.93;;
14603;SDS011;7388;51.078;13.740;2023-01-08T00:09:11;11.30;;;8.70;;
14603;SDS011;7388;51.078;13.740;2023-01-08T00:11:36;11.87;;;8.80;;
14603;SDS011;7388;51.078;13.740;2023-01-08T00:14:02;12.80;;;9.90;;
14603;SDS011;7388;51.078;13.740;2023-01-08T00:16:28;11.07;;;9.70;;
14603;SDS011;7388;51.078;13.740;2023-01-08T00:18:55;8.88;;;7.97;;
14603;SDS011;7388;51.078;13.740;2023-01-08T00:21:21;14.85;;;9.45;;
14603;SDS011;7388;51.078;13.740;2023-01-08T00:23:47;11.27;;;8.30;;
14603;SDS011;7388;51.078;13.740;2023-01-08T00:26:13;12.50;;;9.77;;
14603;SDS011;7388;51.078;13.740;2023-01-08T00:28:39;11.00;;;9.80;;
14603;SDS011;7388;51.078;13.740;2023-01-08T00:31:06;11.80;;;9.35;;
14603;SDS011;7388;51.078;13.740;2023-01-08T00:33:33;10.77;;;9.57;;
14603;SDS011;7388;51.078;13.740;2023-01-08T00:36:00;12.57;;;9.63;;
14603;SDS011;7388;51.078;13.740;2023-01-08T00:38:30;12.20;;;8.63;;
14603;SDS011;7388;51.078;13.740;2023-01-08T00:40:56;12.97;;;9.93;;
14603;SDS011;7388;51.078;13.740;2023-01-08T00:43:22;10.27;;;8.30;;
14603;SDS011;7388;51.078;13.740;2023-01-08T00:45:47;13.70;;;10.07;;
14603;SDS011;7388;51.078;13.740;2023-01-08T00:48:15;12.55;;;9.38;;
14603;SDS011;7388;51.078;13.740;2023-01-08T00:50:41;15.77;;;10.43;;
14603;SDS011;7388;51.078;13.740;2023-01-08T00:53:07;11.90;;;8.37;;
14603;SDS011;7388;51.078;13.740;2023-01-08T00:55:32;13.30;;;9.10;;
14603;SDS011;7388;51.078;13.740;2023-01-08T00:57:58;9.17;;;7.93;;
14603;SDS011;7388;51.078;13.740;2023-01-08T01:00:24;10.60;;;8.37;;
14603;SDS011;7388;51.078;13.740;2023-01-08T01:02:50;14.60;;;10.50;;
14603;SDS011;7388;51.078;13.740;2023-01-08T01:05:15;12.40;;;10.07;;
14603;SDS011;7388;51.078;13.740;2023-01-08T01:07:42;10.40;;;9.30;;
14603;SDS011;7388;51.078;13.740;2023-01-08T01:10:09;13.07;;;10.20;;
14603;SDS011;7388;51.078;13.740;2023-01-08T01:12:36;11.20;;;7.95;;
14603;SDS011;7388;51.078;13.740;2023-01-08T01:15:04;12.10;;;8.80;;
14603;SDS011;7388;51.078;13.740;2023-01-08T01:17:31;13.50;;;9.43;;
14603;SDS011;7388;51.078;13.740;2023-01-08T01:19:58;10.65;;;9.48;;
14603;SDS011;7388;51.078;13.740;2023-01-08T01:22:24;10.90;;;9.10;;
14603;SDS011;7388;51.078;13.740;2023-01-08T01:24:49;13.23;;;9.20;;
14603;SDS011;7388;51.078;13.740;2023-01-08T01:27:15;8.80;;;7.90;;
14603;SDS011;7388;51.078;13.740;2023-01-08T01:29:41;8.40;;;7.50;;
14603;SDS011;7388;51.078;13.740;2023-01-08T01:32:07;11.27;;;8.10;;
14603;SDS011;7388;51.078;13.740;2023-01-08T01:34:33;12.70;;;8.65;;
14603;SDS011;7388;51.078;13.740;2023-01-08T01:36:59;11.30;;;7.82;;
14603;SDS011;7388;51.078;13.740;2023-01-08T01:39:25;12.13;;;8.93;;
14603;SDS011;7388;51.078;13.740;2023-01-08T01:41:51;10.50;;;8.37;;
14603;SDS011;7388;51.078;13.740;2023-01-08T01:47:08;10.82;;;8.70;;
14603;SDS011;7388;51.078;13.740;2023-01-08T01:49:54;10.13;;;7.93;;
14603;SDS011;7388;51.078;13.740;2023-01-08T01:52:22;12.60;;;9.27;;
14603;SDS011;7388;51.078;13.740;2023-01-08T01:54:49;9.75;;;7.93;;
14603;SDS011;7388;51.078;13.740;2023-01-08T01:57:16;11.43;;;8.70;;
14603;SDS011;7388;51.078;13.740;2023-01-08T01:59:42;11.18;;;8.02;;
14603;SDS011;7388;51.078;13.740;2023-01-08T02:02:11;11.85;;;9.55;;
14603;SDS011;7388;51.078;13.740;2023-01-08T02:04:37;13.03;;;9.90;;
14603;SDS011;7388;51.078;13.740;2023-01-08T02:07:06;10.90;;;8.53;;
14603;SDS011;7388;51.078;13.740;2023-01-08T02:12:18;10.18;;;7.97;;
14603;SDS011;7388;51.078;13.740;2023-01-08T02:15:12;12.80;;;8.52;;
14603;SDS011;7388;51.078;13.740;2023-01-08T02:28:31;10.30;;;8.55;;
14603;SDS011;7388;51.078;13.740;2023-01-08T02:31:02;11.38;;;8.40;;
14603;SDS011;7388;51.078;13.740;2023-01-08T02:33:30;11.23;;;7.50;;
14603;SDS011;7388;51.078;13.740;2023-01-08T02:38:46;11.13;;;8.52;;
14603;SDS011;7388;51.078;13.740;2023-01-08T02:42:13;10.27;;;8.48;;
14603;SDS011;7388;51.078;13.740;2023-01-08T02:44:25;11.63;;;9.00;;
14603;SDS011;7388;51.078;13.740;2023-01-08T02:47:04;11.85;;;9.50;;
14603;SDS011;7388;51.078;13.740;2023-01-08T02:49:35;13.60;;;10.52;;
14603;SDS011;7388;51.078;13.740;2023-01-08T02:52:04;11.10;;;8.30;;
14603;SDS011;7388;51.078;13.740;2023-01-08T02:54:33;10.43;;;9.25;;
14603;SDS011;7388;51.078;13.740;2023-01-08T02:57:10;10.95;;;8.48;;
14603;SDS011;7388;51.078;13.740;2023-01-08T02:59:39;12.73;;;9.77;;
14603;SDS011;7388;51.078;13.740;2023-01-08T03:02:07;10.25;;;9.13;;
14603;SDS011;7388;51.078;13.740;2023-01-08T03:04:43;13.82;;;9.50;;
14603;SDS011;7388;51.078;13.740;2023-01-08T03:07:15;13.07;;;9.23;;
14603;SDS011;7388;51.078;13.740;2023-01-08T03:09:41;11.10;;;9.50;;
14603;SDS011;7388;51.078;13.740;2023-01-08T03:12:15;12.63;;;10.43;;
14603;SDS011;7388;51.078;13.740;2023-01-08T03:15:05;12.45;;;9.65;;
14603;SDS011;7388;51.078;13.740;2023-01-08T03:17:38;14.60;;;10.65;;
14603;SDS011;7388;51.078;13.740;2023-01-08T03:20:10;16.67;;;12.50;;
14603;SDS011;7388;51.078;13.740;2023-01-08T03:22:40;16.17;;;11.77;;
14603;SDS011;7388;51.078;13.740;2023-01-08T03:25:08;16.58;;;11.40;;
14603;SDS011;7388;51.078;13.740;2023-01-08T03:27:38;13.50;;;10.27;;
14603;SDS011;7388;51.078;13.740;2023-01-08T03:30:08;13.00;;;10.60;;
14603;SDS011;7388;51.078;13.740;2023-01-08T03:32:35;14.20;;;10.80;;
14603;SDS011;7388;51.078;13.740;2023-01-08T03:35:05;12.25;;;8.77;;
14603;SDS011;7388;51.078;13.740;2023-01-08T03:37:35;15.25;;;11.88;;
14603;SDS011;7388;51.078;13.740;2023-01-08T03:40:19;16.42;;;10.57;;
14603;SDS011;7388;51.078;13.740;2023-01-08T03:42:48;13.98;;;10.15;;
14603;SDS011;7388;51.078;13.740;2023-01-08T03:45:14;13.87;;;11.23;;
14603;SDS011;7388;51.078;13.740;2023-01-08T03:47:40;13.40;;;11.83;;
14603;SDS011;7388;51.078;13.740;2023-01-08T03:50:13;16.33;;;12.13;;
14603;SDS011;7388;51.078;13.740;2023-01-08T03:52:43;17.88;;;12.63;;
14603;SDS011;7388;51.078;13.740;2023-01-08T03:55:09;14.97;;;10.90;;
14603;SDS011;7388;51.078;13.740;2023-01-08T03:57:35;15.33;;;11.10;;
14603;SDS011;7388;51.078;13.740;2023-01-08T04:00:01;13.40;;;11.13;;
14603;SDS011;7388;51.078;13.740;2023-01-08T04:02:27;15.48;;;12.15;;
14603;SDS011;7388;51.078;13.740;2023-01-08T04:04:52;16.50;;;12.70;;
14603;SDS011;7388;51.078;13.740;2023-01-08T04:07:18;15.97;;;11.37;;
14603;SDS011;7388;51.078;13.740;2023-01-08T04:09:44;15.70;;;10.93;;
14603;SDS011;7388;51.078;13.740;2023-01-08T04:12:09;18.10;;;11.27;;
14603;SDS011;7388;51.078;13.740;2023-01-08T04:14:35;15.13;;;11.77;;
14603;SDS011;7388;51.078;13.740;2023-01-08T04:17:01;14.30;;;10.17;;
14603;SDS011;7388;51.078;13.740;2023-01-08T04:19:27;14.27;;;10.80;;
14603;SDS011;7388;51.078;13.740;2023-01-08T04:21:52;15.07;;;12.43;;
14603;SDS011;7388;51.078;13.740;2023-01-08T04:24:18;14.53;;;11.63;;
14603;SDS011;7388;51.078;13.740;2023-01-08T04:26:44;18.30;;;12.27;;
14603;SDS011;7388;51.078;13.740;2023-01-08T04:29:10;15.77;;;10.80;;
14603;SDS011;7388;51.078;13.740;2023-01-08T04:31:37;12.57;;;10.27;;
14603;SDS011;7388;51.078;13.740;2023-01-08T04:34:03;16.92;;;11.25;;
14603;SDS011;7388;51.078;13.740;2023-01-08T04:36:29;10.57;;;9.30;;
14603;SDS011;7388;51.078;13.740;2023-01-08T04:38:54;14.40;;;11.10;;
14603;SDS011;7388;51.078;13.740;2023-01-08T04:41:20;14.17;;;10.67;;
14603;SDS011;7388;51.078;13.740;2023-01-08T04:43:46;12.57;;;10.60;;
14603;SDS011;7388;51.078;13.740;2023-01-08T04:46:12;15.77;;;12.00;;
14603;SDS011;7388;51.078;13.740;2023-01-08T04:48:37;12.60;;;9.50;;
14603;SDS011;7388;51.078;13.740;2023-01-08T04:51:03;13.47;;;11.23;;
14603;SDS011;7388;51.078;13.740;2023-01-08T04:53:31;12.83;;;9.93;;
14603;SDS011;7388;51.078;13.740;2023-01-08T04:56:05;13.52;;;11.35;;
14603;SDS011;7388;51.078;13.740;2023-01-08T04:58:33;12.88;;;10.80;;
14603;SDS011;7388;51.078;13.740;2023-01-08T05:01:00;12.40;;;9.77;;
14603;SDS011;7388;51.078;13.740;2023-01-08T05:03:26;18.08;;;13.00;;
14603;SDS011;7388;51.078;13.740;2023-01-08T05:05:51;14.60;;;10.17;;
14603;SDS011;7388;51.078;13.740;2023-01-08T05:08:17;16.47;;;12.10;;
14603;SDS011;7388;51.078;13.740;2023-01-08T05:10:43;13.07;;;11.00;;
14603;SDS011;7388;51.078;13.740;2023-01-08T05:13:08;17.50;;;11.10;;
14603;SDS011;7388;51.078;13.740;2023-01-08T05:15:34;14.17;;;11.10;;
14603;SDS011;7388;51.078;13.740;2023-01-08T05:18:03;17.73;;;11.30;;
14603;SDS011;7388;51.078;13.740;2023-01-08T05:20:33;13.80;;;10.95;;
14603;SDS011;7388;51.078;13.740;2023-01-08T05:22:59;18.05;;;12.18;;
14603;SDS011;7388;51.078;13.740;2023-01-08T05:25:25;15.07;;;12.07;;
14603;SDS011;7388;51.078;13.740;2023-01-08T05:27:51;15.63;;;11.27;;
14603;SDS011;7388;51.078;13.740;2023-01-08T05:30:16;16.37;;;11.90;;
14603;SDS011;7388;51.078;13.740;2023-01-08T05:32:42;18.03;;;13.70;;
14603;SDS011;7388;51.078;13.740;2023-01-08T05:35:08;18.73;;;13.77;;
14603;SDS011;7388;51.078;13.740;2023-01-08T05:37:34;15.50;;;10.73;;
14603;SDS011;7388;51.078;13.740;2023-01-08T05:40:01;19.73;;;11.63;;
14603;SDS011;7388;51.078;13.740;2023-01-08T05:42:28;19.50;;;13.45;;
14603;SDS011;7388;51.078;13.740;2023-01-08T05:44:54;18.43;;;12.90;;
14603;SDS011;7388;51.078;13.740;2023-01-08T05:47:19;15.83;;;13.53;;
14603;SDS011;7388;51.078;13.740;2023-01-08T05:49:45;16.37;;;12.50;;
14603;SDS011;7388;51.078;13.740;2023-01-08T05:52:11;15.67;;;13.07;;
14603;SDS011;7388;51.078;13.740;2023-01-08T05:54:36;16.50;;;11.57;;
14603;SDS011;7388;51.078;13.740;2023-01-08T05:57:02;17.10;;;13.50;;
14603;SDS011;7388;51.078;13.740;2023-01-08T05:59:28;17.80;;;12.07;;
14603;SDS011;7388;51.078;13.740;2023-01-08T06:01:54;19.40;;;13.70;;
14603;SDS011;7388;51.078;13.740;2023-01-08T06:04:19;18.37;;;12.60;;
14603;SDS011;7388;51.078;13.740;2023-01-08T06:06:45;15.77;;;12.33;;
14603;SDS011;7388;51.078;13.740;2023-01-08T06:09:11;17.97;;;13.23;;
14603;SDS011;7388;51.078;13.740;2023-01-08T06:11:37;19.25;;;14.80;;
14603;SDS011;7388;51.078;13.740;2023-01-08T06:14:03;15.43;;;12.50;;
14603;SDS011;7388;51.078;13.740;2023-01-08T06:16:28;17.97;;;13.43;;
14603;SDS011;7388;51.078;13.740;2023-01-08T06:18:54;17.20;;;14.20;;
14603;SDS011;7388;51.078;13.740;2023-01-08T06:21:20;19.90;;;15.07;;
14603;SDS011;7388;51.078;13.740;2023-01-08T06:23:45;19.37;;;14.43;;
14603;SDS011;7388;51.078;13.740;2023-01-08T06:26:11;19.63;;;14.43;;
14603;SDS011;7388;51.078;13.740;2023-01-08T06:28:37;17.60;;;13.87;;
14603;SDS011;7388;51.078;13.740;2023-01-08T06:31:03;21.63;;;14.03;;
14603;SDS011;7388;51.078;13.740;2023-01-08T06:33:29;19.30;;;13.00;;
14603;SDS011;7388;51.078;13.740;2023-01-08T06:35:58;18.92;;;13.10;;
14603;SDS011;7388;51.078;13.740;2023-01-08T06:38:32;17.70;;;12.90;;
14603;SDS011;7388;51.078;13.740;2023-01-08T06:41:02;20.05;;;15.15;;
14603;SDS011;7388;51.078;13.740;2023-01-08T06:43:33;18.88;;;14.02;;
14603;SDS011;7388;51.078;13.740;2023-01-08T06:45:59;20.38;;;15.23;;
14603;SDS011;7388;51.078;13.740;2023-01-08T06:48:25;20.80;;;15.15;;
14603;SDS011;7388;51.078;13.740;2023-01-08T06:50:51;21.08;;;15.00;;
14603;SDS011;7388;51.078;13.740;2023-01-08T06:53:17;20.60;;;14.77;;
14603;SDS011;7388;51.078;13.740;2023-01-08T06:55:43;25.45;;;14.55;;
14603;SDS011;7388;51.078;13.740;2023-01-08T06:58:10;18.17;;;13.53;;
14603;SDS011;7388;51.078;13.740;2023-01-08T07:00:36;16.17;;;12.77;;
14603;SDS011;7388;51.078;13.740;2023-01-08T07:03:03;19.73;;;14.48;;
14603;SDS011;7388;51.078;13.740;2023-01-08T07:05:29;21.80;;;14.70;;
14603;SDS011;7388;51.078;13.740;2023-01-08T07:07:54;17.57;;;13.30;;
14603;SDS011;7388;51.078;13.740;2023-01-08T07:10:20;18.70;;;14.40;;
14603;SDS011;7388;51.078;13.740;2023-01-08T07:12:47;22.60;;;14.57;;
14603;SDS011;7388;51.078;13.740;2023-01-08T07:15:13;18.55;;;13.27;;
14603;SDS011;7388;51.078;13.740;2023-01-08T07:17:39;18.02;;;13.43;;
14603;SDS011;7388;51.078;13.740;2023-01-08T07:20:05;19.03;;;14.30;;
14603;SDS011;7388;51.078;13.740;2023-01-08T07:22:31;16.98;;;13.75;;
14603;SDS011;7388;51.078;13.740;2023-01-08T07:24:57;17.17;;;13.60;;
14603;SDS011;7388;51.078;13.740;2023-01-08T07:27:23;17.87;;;13.73;;
14603;SDS011;7388;51.078;13.740;2023-01-08T07:29:48;18.60;;;13.40;;
14603;SDS011;7388;51.078;13.740;2023-01-08T07:32:14;19.53;;;13.80;;
14603;SDS011;7388;51.078;13.740;2023-01-08T07:34:40;16.57;;;12.80;;
14603;SDS011;7388;51.078;13.740;2023-01-08T07:37:06;16.03;;;12.30;;
14603;SDS011;7388;51.078;13.740;2023-01-08T07:39:31;18.00;;;13.57;;
14603;SDS011;7388;51.078;13.740;2023-01-08T07:41:58;18.63;;;12.40;;
14603;SDS011;7388;51.078;13.740;2023-01-08T07:44:23;15.70;;;11.80;;
14603;SDS011;7388;51.078;13.740;2023-01-08T07:46:49;16.17;;;12.10;;
14603;SDS011;7388;51.078;13.740;2023-01-08T07:49:15;20.33;;;13.67;;
14603;SDS011;7388;51.078;13.740;2023-01-08T07:51:40;15.43;;;11.73;;
14603;SDS011;7388;51.078;13.740;2023-01-08T07:54:06;20.00;;;13.30;;
14603;SDS011;7388;51.078;13.740;2023-01-08T07:56:32;15.60;;;11.57;;
14603;SDS011;7388;51.078;13.740;2023-01-08T07:58:58;15.40;;;12.80;;
14603;SDS011;7388;51.078;13.740;2023-01-08T08:01:23;14.83;;;10.80;;
14603;SDS011;7388;51.078;13.740;2023-01-08T08:03:50;14.52;;;10.57;;
14603;SDS011;7388;51.078;13.740;2023-01-08T08:06:16;18.05;;;12.60;;
14603;SDS011;7388;51.078;13.740;2023-01-08T08:08:42;23.60;;;13.23;;
14603;SDS011;7388;51.078;13.740;2023-01-08T08:11:07;14.47;;;11.50;;
14603;SDS011;7388;51.078;13.740;2023-01-08T08:13:33;16.87;;;11.50;;
14603;SDS011;7388;51.078;13.740;2023-01-08T08:16:00;19.03;;;13.27;;
14603;SDS011;7388;51.078;13.740;2023-01-08T08:18:29;15.85;;;11.18;;
14603;SDS011;7388;51.078;13.740;2023-01-08T08:20:55;17.57;;;13.00;;
14603;SDS011;7388;51.078;13.740;2023-01-08T08:23:20;17.63;;;11.37;;
14603;SDS011;7388;51.078;13.740;2023-01-08T08:25:46;17.30;;;12.00;;
14603;SDS011;7388;51.078;13.740;2023-01-08T08:28:12;19.03;;;12.27;;
14603;SDS011;7388;51.078;13.740;2023-01-08T08:30:38;19.00;;;11.47;;
14603;SDS011;7388;51.078;13.740;2023-01-08T08:33:04;18.83;;;11.73;;
14603;SDS011;7388;51.078;13.740;2023-01-08T08:35:31;15.93;;;10.90;;
14603;SDS011;7388;51.078;13.740;2023-01-08T08:37:58;17.13;;;11.82;;
14603;SDS011;7388;51.078;13.740;2023-01-08T08:40:24;18.07;;;10.73;;
14603;SDS011;7388;51.078;13.740;2023-01-08T08:42:56;15.85;;;11.52;;
14603;SDS011;7388;51.078;13.740;2023-01-08T08:45:24;16.30;;;11.35;;
14603;SDS011;7388;51.078;13.740;2023-01-08T08:47:50;13.30;;;9.23;;
14603;SDS011;7388;51.078;13.740;2023-01-08T08:50:16;13.47;;;9.90;;
14603;SDS011;7388;51.078;13.740;2023-01-08T08:52:42;17.55;;;11.40;;
14603;SDS011;7388;51.078;13.740;2023-01-08T08:55:10;16.88;;;9.63;;
14603;SDS011;7388;51.078;13.740;2023-01-08T08:57:41;15.30;;;11.32;;
14603;SDS011;7388;51.078;13.740;2023-01-08T09:00:07;16.60;;;10.95;;
14603;SDS011;7388;51.078;13.740;2023-01-08T09:02:34;15.05;;;10.52;;
14603;SDS011;7388;51.078;13.740;2023-01-08T09:04:59;16.40;;;9.67;;
14603;SDS011;7388;51.078;13.740;2023-01-08T09:07:25;15.97;;;11.70;;
14603;SDS011;7388;51.078;13.740;2023-01-08T09:09:51;17.77;;;9.60;;
14603;SDS011;7388;51.078;13.740;2023-01-08T09:12:16;14.10;;;11.23;;
14603;SDS011;7388;51.078;13.740;2023-01-08T09:14:42;14.10;;;10.00;;
14603;SDS011;7388;51.078;13.740;2023-01-08T09:17:08;16.40;;;11.15;;
14603;SDS011;7388;51.078;13.740;2023-01-08T09:19:34;13.80;;;10.00;;
14603;SDS011;7388;51.078;13.740;2023-01-08T09:22:00;13.17;;;9.43;;
14603;SDS011;7388;51.078;13.740;2023-01-08T09:24:27;12.48;;;9.30;;
14603;SDS011;7388;51.078;13.740;2023-01-08T09:26:53;12.40;;;9.20;;
14603;SDS011;7388;51.078;13.740;2023-01-08T09:29:19;10.75;;;9.00;;
14603;SDS011;7388;51.078;13.740;2023-01-08T09:31:45;13.20;;;9.60;;
14603;SDS011;7388;51.078;13.740;2023-01-08T09:34:11;15.53;;;10.03;;
14603;SDS011;7388;51.078;13.740;2023-01-08T09:36:37;13.23;;;9.27;;
14603;SDS011;7388;51.078;13.740;2023-01-08T09:39:03;12.07;;;9.00;;
14603;SDS011;7388;51.078;13.740;2023-01-08T09:41:33;11.43;;;9.50;;
14603;SDS011;7388;51.078;13.740;2023-01-08T09:44:02;13.43;;;9.65;;
14603;SDS011;7388;51.078;13.740;2023-01-08T09:46:30;19.08;;;10.50;;
14603;SDS011;7388;51.078;13.740;2023-01-08T09:48:57;14.23;;;10.27;;
14603;SDS011;7388;51.078;13.740;2023-01-08T09:51:34;15.90;;;11.05;;
14603;SDS011;7388;51.078;13.740;2023-01-08T09:54:02;14.32;;;11.15;;
14603;SDS011;7388;51.078;13.740;2023-01-08T09:56:30;13.70;;;9.70;;
14603;SDS011;7388;51.078;13.740;2023-01-08T09:58:58;10.52;;;8.23;;
14603;SDS011;7388;51.078;13.740;2023-01-08T10:01:28;13.18;;;10.07;;
14603;SDS011;7388;51.078;13.740;2023-01-08T10:06:24;13.95;;;9.50;;
14603;SDS011;7388;51.078;13.740;2023-01-08T10:08:50;11.80;;;9.20;;
14603;SDS011;7388;51.078;13.740;2023-01-08T10:11:16;14.60;;;10.52;;
14603;SDS011;7388;51.078;13.740;2023-01-08T10:13:44;10.48;;;8.98;;
14603;SDS011;7388;51.078;13.740;2023-01-08T10:16:34;11.65;;;9.55;;
14603;SDS011;7388;51.078;13.740;2023-01-08T10:19:02;14.98;;;10.45;;
14603;SDS011;7388;51.078;13.740;2023-01-08T10:21:30;14.85;;;10.65;;
14603;SDS011;7388;51.078;13.740;2023-01-08T10:24:03;13.23;;;10.18;;
14603;SDS011;7388;51.078;13.740;2023-01-08T10:26:30;13.25;;;9.20;;
14603;SDS011;7388;51.078;13.740;2023-01-08T10:29:16;15.50;;;11.55;;
14603;SDS011;7388;51.078;13.740;2023-01-08T10:31:44;11.77;;;9.10;;
14603;SDS011;7388;51.078;13.740;2023-01-08T10:34:21;16.25;;;10.80;;
14603;SDS011;7388;51.078;13.740;2023-01-08T10:36:49;13.65;;;9.15;;
14603;SDS011;7388;51.078;13.740;2023-01-08T10:39:20;15.75;;;10.95;;
14603;SDS011;7388;51.078;13.740;2023-01-08T10:41:50;10.48;;;8.88;;
14603;SDS011;7388;51.078;13.740;2023-01-08T10:44:18;15.77;;;10.30;;
14603;SDS011;7388;51.078;13.740;2023-01-08T10:46:45;13.13;;;9.27;;
14603;SDS011;7388;51.078;13.740;2023-01-08T10:49:28;14.18;;;10.35;;
14603;SDS011;7388;51.078;13.740;2023-01-08T10:52:04;13.05;;;9.07;;
14603;SDS011;7388;51.078;13.740;2023-01-08T10:54:31;12.10;;;9.88;;
14603;SDS011;7388;51.078;13.740;2023-01-08T11:00:04;13.82;;;8.38;;
14603;SDS011;7388;51.078;13.740;2023-01-08T11:02:35;13.10;;;9.60;;
14603;SDS011;7388;51.078;13.740;2023-01-08T11:05:04;11.23;;;7.72;;
14603;SDS011;7388;51.078;13.740;2023-01-08T11:07:32;10.63;;;8.30;;
14603;SDS011;7388;51.078;13.740;2023-01-08T11:09:59;11.18;;;8.77;;
14603;SDS011;7388;51.078;13.740;2023-01-08T11:12:33;10.15;;;8.27;;
14603;SDS011;7388;51.078;13.740;2023-01-08T11:15:04;10.70;;;8.02;;
14603;SDS011;7388;51.078;13.740;2023-01-08T11:17:51;11.13;;;8.57;;
14603;SDS011;7388;51.078;13.740;2023-01-08T11:20:21;12.07;;;8.50;;
14603;SDS011;7388;51.078;13.740;2023-01-08T11:23:03;14.00;;;10.48;;
14603;SDS011;7388;51.078;13.740;2023-01-08T11:25:43;11.65;;;8.40;;
14603;SDS011;7388;51.078;13.740;2023-01-08T11:28:26;9.63;;;7.75;;
14603;SDS011;7388;51.078;13.740;2023-01-08T11:31:21;14.30;;;8.25;;
14603;SDS011;7388;51.078;13.740;2023-01-08T11:33:57;12.73;;;8.38;;
14603;SDS011;7388;51.078;13.740;2023-01-08T11:36:32;12.07;;;9.00;;
14603;SDS011;7388;51.078;13.740;2023-01-08T11:39:00;14.05;;;10.52;;
14603;SDS011;7388;51.078;13.740;2023-01-08T11:41:29;14.43;;;9.65;;
14603;SDS011;7388;51.078;13.740;2023-01-08T11:44:40;10.23;;;8.55;;
14603;SDS011;7388;51.078;13.740;2023-01-08T12:01:33;9.90;;;8.30;;
14603;SDS011;7388;51.078;13.740;2023-01-08T12:07:18;14.00;;;10.60;;
14603;SDS011;7388;51.078;13.740;2023-01-08T12:28:26;11.23;;;8.63;;
14603;SDS011;7388;51.078;13.740;2023-01-08T12:33:48;15.23;;;10.63;;
14603;SDS011;7388;51.078;13.740;2023-01-08T12:36:29;13.52;;;9.73;;
14603;SDS011;7388;51.078;13.740;2023-01-08T12:39:05;16.20;;;10.73;;
14603;SDS011;7388;51.078;13.740;2023-01-08T12:41:36;11.85;;;8.90;;
14603;SDS011;7388;51.078;13.740;2023-01-08T12:44:05;13.80;;;10.13;;
14603;SDS011;7388;51.078;13.740;2023-01-08T12:46:41;13.13;;;9.50;;
14603;SDS011;7388;51.078;13.740;2023-01-08T12:49:10;16.25;;;9.88;;
14603;SDS011;7388;51.078;13.740;2023-01-08T12:52:44;13.18;;;10.32;;
14603;SDS011;7388;51.078;13.740;2023-01-08T12:55:21;12.85;;;10.48;;
14603;SDS011;7388;51.078;13.740;2023-01-08T12:58:03;14.75;;;10.25;;
14603;SDS011;7388;51.078;13.740;2023-01-08T13:00:38;14.25;;;10.98;;
14603;SDS011;7388;51.078;13.740;2023-01-08T13:03:11;22.10;;;12.68;;
14603;SDS011;7388;51.078;13.740;2023-01-08T13:05:42;15.25;;;10.70;;
14603;SDS011;7388;51.078;13.740;2023-01-08T13:08:23;17.17;;;10.95;;
14603;SDS011;7388;51.078;13.740;2023-01-08T13:10:58;15.07;;;11.10;;
14603;SDS011;7388;51.078;13.740;2023-01-08T13:15:50;15.37;;;11.00;;
14603;SDS011;7388;51.078;13.740;2023-01-08T13:18:18;17.17;;;11.00;;
14603;SDS011;7388;51.078;13.740;2023-01-08T13:20:55;13.63;;;10.23;;
14603;SDS011;7388;51.078;13.740;2023-01-08T13:23:23;16.08;;;10.02;;
14603;SDS011;7388;51.078;13.740;2023-01-08T13:25:52;14.63;;;10.85;;
14603;SDS011;7388;51.078;13.740;2023-01-08T13:31:12;15.07;;;10.27;;
14603;SDS011;7388;51.078;13.740;2023-01-08T13:33:52;15.75;;;10.95;;
14603;SDS011;7388;51.078;13.740;2023-01-08T13:36:22;15.88;;;11.48;;
14603;SDS011;7388;51.078;13.740;2023-01-08T13:39:00;14.68;;;11.02;;
14603;SDS011;7388;51.078;13.740;2023-01-08T13:41:31;15.75;;;10.68;;
14603;SDS011;7388;51.078;13.740;2023-01-08T13:44:03;13.48;;;10.07;;
14603;SDS011;7388;51.078;13.740;2023-01-08T13:46:53;15.80;;;11.20;;
14603;SDS011;7388;51.078;13.740;2023-01-08T13:49:27;16.70;;;11.27;;
14603;SDS011;7388;51.078;13.740;2023-01-08T13:51:53;13.68;;;9.55;;
14603;SDS011;7388;51.078;13.740;2023-01-08T13:54:24;14.90;;;10.50;;
14603;SDS011;7388;51.078;13.740;2023-01-08T13:57:05;15.65;;;11.35;;
14603;SDS011;7388;51.078;13.740;2023-01-08T13:59:40;14.50;;;9.85;;
14603;SDS011;7388;51.078;13.740;2023-01-08T14:02:28;17.27;;;11.00;;
14603;SDS011;7388;51.078;13.740;2023-01-08T14:04:57;16.88;;;12.27;;
14603;SDS011;7388;51.078;13.740;2023-01-08T14:07:25;17.60;;;10.50;;
14603;SDS011;7388;51.078;13.740;2023-01-08T14:09:51;18.33;;;12.35;;
14603;SDS011;7388;51.078;13.740;2023-01-08T14:12:18;15.15;;;11.45;;
14603;SDS011;7388;51.078;13.740;2023-01-08T14:14:52;15.32;;;11.68;;
14603;SDS011;7388;51.078;13.740;2023-01-08T14:17:22;17.83;;;12.20;;
14603;SDS011;7388;51.078;13.740;2023-01-08T14:19:53;14.63;;;10.80;;
14603;SDS011;7388;51.078;13.740;2023-01-08T14:22:20;19.70;;;11.73;;
14603;SDS011;7388;51.078;13.740;2023-01-08T14:24:55;16.15;;;10.95;;
14603;SDS011;7388;51.078;13.740;2023-01-08T14:27:26;16.17;;;10.95;;
14603;SDS011;7388;51.078;13.740;2023-01-08T14:29:54;20.40;;;11.95;;
14603;SDS011;7388;51.078;13.740;2023-01-08T14:32:21;15.80;;;11.48;;
14603;SDS011;7388;51.078;13.740;2023-01-08T14:34:49;16.27;;;11.05;;
14603;SDS011;7388;51.078;13.740;2023-01-08T14:37:17;15.95;;;10.48;;
14603;SDS011;7388;51.078;13.740;2023-01-08T14:39:43;17.23;;;12.50;;
14603;SDS011;7388;51.078;13.740;2023-01-08T14:45:43;17.33;;;11.88;;
14603;SDS011;7388;51.078;13.740;2023-01-08T14:47:55;17.42;;;12.57;;
14603;SDS011;7388;51.078;13.740;2023-01-08T14:50:25;15.40;;;11.85;;
14603;SDS011;7388;51.078;13.740;2023-01-08T14:52:51;18.63;;;12.23;;
14603;SDS011;7388;51.078;13.740;2023-01-08T14:55:21;15.48;;;11.57;;
14603;SDS011;7388;51.078;13.740;2023-01-08T14:57:48;15.88;;;11.73;;
14603;SDS011;7388;51.078;13.740;2023-01-08T15:00:18;18.58;;;12.65;;
14603;SDS011;7388;51.078;13.740;2023-01-08T15:02:47;20.58;;;14.27;;
14603;SDS011;7388;51.078;13.740;2023-01-08T15:07:42;19.48;;;13.50;;
14603;SDS011;7388;51.078;13.740;2023-01-08T15:10:22;16.55;;;11.82;;
14603;SDS011;7388;51.078;13.740;2023-01-08T15:13:02;15.77;;;10.65;;
14603;SDS011;7388;51.078;13.740;2023-01-08T15:15:31;20.02;;;13.07;;
14603;SDS011;7388;51.078;13.740;2023-01-08T15:18:03;20.63;;;12.05;;
14603;SDS011;7388;51.078;13.740;2023-01-08T15:20:31;14.27;;;10.75;;
14603;SDS011;7388;51.078;13.740;2023-01-08T15:22:57;15.15;;;10.10;;
14603;SDS011;7388;51.078;13.740;2023-01-08T15:25:27;13.90;;;11.10;;
14603;SDS011;7388;51.078;13.740;2023-01-08T15:27:58;17.50;;;11.05;;
14603;SDS011;7388;51.078;13.740;2023-01-08T15:30:27;15.98;;;10.63;;
14603;SDS011;7388;51.078;13.740;2023-01-08T15:35:41;18.60;;;11.73;;
14603;SDS011;7388;51.078;13.740;2023-01-08T15:38:07;21.73;;;11.57;;
14603;SDS011;7388;51.078;13.740;2023-01-08T15:40:33;17.60;;;11.53;;
14603;SDS011;7388;51.078;13.740;2023-01-08T15:42:59;18.35;;;13.32;;
14603;SDS011;7388;51.078;13.740;2023-01-08T15:45:40;14.07;;;11.38;;
14603;SDS011;7388;51.078;13.740;2023-01-08T15:48:08;20.60;;;13.52;;
14603;SDS011;7388;51.078;13.740;2023-01-08T15:50:36;16.58;;;11.48;;
14603;SDS011;7388;51.078;13.740;2023-01-08T15:53:04;17.85;;;12.07;;
14603;SDS011;7388;51.078;13.740;2023-01-08T15:55:34;17.55;;;11.88;;